Time;durP1;ratioP1;P1;durP2;ratioP2;P2;SDS_P1;SDS_P2;PMS_P1;PMS_P2;Temp;Humidity;BMP_temperature;BMP_pressure;BME280_temperature;BME280_humidity;BME280_pressure;Samples;Min_cycle;Max_cycle;Signal;HPM_P1;HPM_P2
2023/01/01 00:02:42;;;;;;;13.40;7.90;;;2.00;99.90;3.30;97520.00;;;;5023559;28;20455;-84
2023/01/01 00:05:31;;;;;;;18.97;9.23;;;2.20;99.90;3.60;97531.00;;;;5022950;28;20429;-84
2023/01/01 00:08:19;;;;;;;12.93;9.63;;;2.30;99.90;3.70;97529.00;;;;5026537;28;20449;-83
2023/01/01 00:11:10;;;;;;;13.90;8.80;;;2.40;99.90;3.50;97536.00;;;;5026767;28;20479;-85
2023/01/01 00:13:59;;;;;;;17.20;11.07;;;2.40;99.90;3.10;97516.00;;;;5027603;28;20436;-83
2023/01/01 00:16:49;;;;;;;16.03;8.50;;;2.40;99.90;3.00;97525.00;;;;5021769;28;20451;-84
2023/01/01 00:19:38;;;;;;;11.97;7.57;;;2.20;99.90;2.80;97521.00;;;;5031336;28;20502;-84
2023/01/01 00:22:27;;;;;;;6.73;5.47;;;2.10;99.90;2.60;97520.00;;;;5032532;28;21277;-87
2023/01/01 00:25:35;;;;;;;12.73;7.37;;;2.10;99.90;3.10;97514.00;;;;5032707;28;20926;-83
2023/01/01 00:28:24;;;;;;;6.37;5.30;;;2.10;99.90;2.70;97509.00;;;;5030471;28;20472;-85
2023/01/01 00:31:16;;;;;;;9.27;7.03;;;2.10;99.90;3.10;97517.00;;;;5022921;28;20460;-84
2023/01/01 00:34:06;;;;;;;12.37;8.50;;;2.10;99.90;3.50;97522.00;;;;5018874;28;20937;-84
2023/01/01 00:36:55;;;;;;;9.93;6.90;;;2.20;99.90;3.70;97515.00;;;;5029295;28;20433;-84
2023/01/01 00:39:44;;;;;;;10.17;6.10;;;2.30;99.90;2.70;97513.00;;;;5030330;28;20460;-83
2023/01/01 00:42:32;;;;;;;11.67;6.83;;;2.30;99.90;2.70;97495.00;;;;5031086;28;20479;-84
2023/01/01 00:45:21;;;;;;;10.77;5.70;;;2.10;99.90;3.00;97500.00;;;;5029547;28;20514;-85
2023/01/01 00:48:10;;;;;;;7.87;5.70;;;2.10;99.90;2.80;97495.00;;;;5030792;28;20434;-84
2023/01/01 00:51:01;;;;;;;9.43;6.97;;;2.10;99.90;2.90;97505.00;;;;5031725;28;20456;-84
2023/01/01 00:53:50;;;;;;;11.00;7.07;;;2.00;99.90;2.80;97496.00;;;;5029846;28;20431;-87
2023/01/01 00:56:38;;;;;;;9.43;6.27;;;2.10;99.90;2.60;97505.00;;;;5026534;28;20465;-85
2023/01/01 00:59:27;;;;;;;11.37;7.20;;;1.90;99.90;2.30;97510.00;;;;5030231;28;20818;-85
2023/01/01 01:02:16;;;;;;;14.67;7.17;;;2.10;99.90;2.20;97493.00;;;;5030960;28;20468;-83
2023/01/01 01:05:06;;;;;;;14.17;7.93;;;1.70;99.90;2.40;97500.00;;;;5024842;28;20440;-83
2023/01/01 01:07:56;;;;;;;13.17;9.33;;;1.70;99.90;2.80;97497.00;;;;5029710;28;20806;-84
2023/01/01 01:10:45;;;;;;;15.87;11.00;;;1.90;99.90;3.30;97503.00;;;;5027670;28;20471;-84
2023/01/01 01:13:34;;;;;;;15.30;10.80;;;2.00;99.90;3.30;97495.00;;;;5031075;28;20439;-83
2023/01/01 01:16:26;;;;;;;18.93;10.57;;;2.10;99.90;2.90;97513.00;;;;5019744;28;20423;-84
2023/01/01 01:19:17;;;;;;;15.70;11.40;;;2.20;99.90;2.90;97516.00;;;;5030035;28;20428;-83
2023/01/01 01:22:06;;;;;;;14.97;10.80;;;1.90;99.90;2.90;97499.00;;;;5030305;28;20472;-85
2023/01/01 01:24:57;;;;;;;15.97;11.93;;;2.00;99.90;2.90;97499.00;;;;5029791;28;20432;-83
2023/01/01 01:27:45;;;;;;;14.70;9.57;;;1.90;99.90;2.60;97493.00;;;;5029406;28;20903;-84
2023/01/01 01:30:34;;;;;;;10.50;8.90;;;1.90;99.90;2.20;97492.00;;;;5030709;28;20620;-86
2023/01/01 01:33:23;;;;;;;15.70;10.63;;;-0.60;99.90;2.50;97509.00;;;;5031219;28;20431;-84
2023/01/01 01:36:13;;;;;;;18.33;12.27;;;1.80;99.90;2.70;97483.00;;;;5022664;28;20429;-84
2023/01/01 01:39:02;;;;;;;15.10;10.67;;;1.70;99.90;2.70;97498.00;;;;5030288;28;20480;-84
2023/01/01 01:41:52;;;;;;;17.47;11.90;;;1.80;99.90;2.80;97491.00;;;;5029866;28;20553;-84
2023/01/01 01:44:57;;;;;;;17.07;10.17;;;1.80;99.90;2.90;97490.00;;;;5030099;28;20424;-83
2023/01/01 01:47:51;;;;;;;13.37;10.97;;;2.10;99.90;2.60;97485.00;;;;5029254;28;20514;-83
2023/01/01 01:50:42;;;;;;;17.27;10.73;;;1.80;99.90;2.70;97487.00;;;;5030270;28;20492;-83
2023/01/01 01:53:35;;;;;;;18.13;10.40;;;1.90;99.90;2.60;97480.00;;;;5029909;28;20425;-85
2023/01/01 01:56:30;;;;;;;17.30;11.30;;;1.70;99.90;2.40;97470.00;;;;5028165;28;20433;-83
2023/01/01 01:59:22;;;;;;;11.80;9.30;;;1.80;99.90;2.50;97463.00;;;;5028425;28;20961;-84
2023/01/01 02:02:20;;;;;;;14.37;10.17;;;1.60;99.90;2.60;97464.00;;;;5029754;28;20472;-83
2023/01/01 02:05:09;;;;;;;16.40;10.80;;;1.70;99.90;2.90;97455.00;;;;5027484;28;20815;-84
2023/01/01 02:08:00;;;;;;;14.43;9.97;;;1.80;99.90;2.50;97456.00;;;;5029924;28;20424;-84
2023/01/01 02:10:48;;;;;;;18.17;11.33;;;1.80;99.90;2.50;97455.00;;;;5031099;28;20476;-85
2023/01/01 02:13:37;;;;;;;13.20;9.00;;;2.10;99.90;2.30;97444.00;;;;5040535;28;20433;-83
2023/01/01 02:16:37;;;;;;;15.33;11.40;;;3.80;99.90;2.50;97443.00;;;;5054204;28;20451;-82
2023/01/01 02:19:42;;;;;;;9.37;7.00;;;1.50;99.90;2.30;97440.00;;;;5040859;28;20416;-84
2023/01/01 02:22:49;;;;;;;10.50;7.73;;;1.70;99.90;3.00;97446.00;;;;5051894;28;20490;-83
2023/01/01 02:25:54;;;;;;;14.93;10.43;;;1.70;99.90;2.90;97446.00;;;;5053491;28;20420;-83
2023/01/01 02:28:53;;;;;;;20.90;10.03;;;2.10;99.90;3.00;97449.00;;;;5054688;28;20448;-83
2023/01/01 02:31:47;;;;;;;14.70;9.70;;;2.00;99.90;2.90;97451.00;;;;5053556;28;20452;-83
2023/01/01 02:34:41;;;;;;;19.07;9.63;;;1.90;99.90;2.80;97444.00;;;;5053773;28;20420;-82
2023/01/01 02:37:30;;;;;;;13.07;9.87;;;1.80;99.90;2.80;97441.00;;;;5043157;28;20467;-83
2023/01/01 02:40:21;;;;;;;2.97;2.60;;;2.00;99.90;2.40;97435.00;;;;5051250;28;20477;-85
2023/01/01 02:43:10;;;;;;;20.37;9.67;;;2.00;99.90;2.40;97439.00;;;;5051733;28;20486;-83
2023/01/01 02:46:05;;;;;;;9.90;7.73;;;3.00;99.90;2.80;97447.00;;;;5053352;28;20463;-83
2023/01/01 02:48:54;;;;;;;15.83;9.20;;;2.70;99.90;3.10;97440.00;;;;5051719;28;20428;-83
2023/01/01 02:52:00;;;;;;;6.53;5.23;;;2.20;99.90;2.50;97452.00;;;;5038178;28;20467;-88
2023/01/01 02:54:59;;;;;;;7.67;5.73;;;1.80;99.90;2.20;97440.00;;;;5054021;28;20443;-87
2023/01/01 02:57:53;;;;;;;8.60;6.00;;;1.70;99.90;2.00;97447.00;;;;5056471;28;20428;-86
2023/01/01 03:00:41;;;;;;;11.10;7.27;;;1.60;99.90;2.60;97457.00;;;;5036602;28;21014;-84
2023/01/01 03:03:39;;;;;;;12.63;7.50;;;2.20;99.90;3.00;97463.00;;;;5040391;28;20495;-83
2023/01/01 03:06:37;;;;;;;15.23;6.77;;;1.80;99.90;2.80;97445.00;;;;5028918;28;20416;-85
2023/01/01 03:09:35;;;;;;;6.97;4.50;;;1.90;99.90;2.20;97426.00;;;;5039820;28;20447;-86
2023/01/01 03:12:38;;;;;;;8.30;6.93;;;1.80;99.90;1.90;97426.00;;;;5039346;28;20432;-86
2023/01/01 03:15:31;;;;;;;5.60;3.87;;;1.60;99.90;1.90;97435.00;;;;5037924;28;20434;-89
2023/01/01 03:18:27;;;;;;;9.47;6.17;;;1.50;99.90;2.50;97428.00;;;;5037231;28;20445;-83
2023/01/01 03:21:21;;;;;;;9.50;6.87;;;1.60;99.90;2.70;97430.00;;;;5038226;28;20486;-86
2023/01/01 03:24:17;;;;;;;8.57;7.23;;;1.70;99.90;2.30;97425.00;;;;5025812;28;20844;-84
2023/01/01 03:27:12;;;;;;;7.37;4.70;;;2.10;99.90;1.90;97436.00;;;;5037881;28;20875;-86
2023/01/01 03:30:07;;;;;;;13.07;6.47;;;1.50;99.90;2.00;97426.00;;;;5030414;28;20447;-85
2023/01/01 03:33:00;;;;;;;8.60;5.70;;;1.50;99.90;2.40;97431.00;;;;5039450;28;20809;-86
2023/01/01 03:35:53;;;;;;;7.43;5.67;;;1.50;99.90;2.90;97434.00;;;;5038200;28;20479;-87
2023/01/01 03:38:49;;;;;;;3.90;2.03;;;2.10;99.90;2.60;97441.00;;;;5031192;28;20436;-85
2023/01/01 03:41:44;;;;;;;9.33;5.43;;;1.80;99.90;2.40;97434.00;;;;5036495;28;20447;-88
2023/01/01 03:44:38;;;;;;;14.63;6.20;;;1.80;99.90;3.00;97448.00;;;;5034067;28;20432;-85
2023/01/01 03:47:26;;;;;;;5.83;4.27;;;2.10;99.90;3.20;97451.00;;;;5039028;28;20424;-84
2023/01/01 03:50:16;;;;;;;8.47;4.37;;;2.00;99.90;3.00;97448.00;;;;5038134;28;20448;-86
2023/01/01 03:53:10;;;;;;;5.43;4.93;;;1.90;99.90;3.10;97442.00;;;;5038715;28;20431;-84
2023/01/01 03:56:13;;;;;;;9.07;5.93;;;2.00;99.90;3.50;97442.00;;;;5038855;28;20520;-84
2023/01/01 03:59:11;;;;;;;4.03;3.60;;;2.20;99.90;2.30;97424.00;;;;5029911;28;20511;-89
2023/01/01 04:02:04;;;;;;;5.13;4.37;;;2.10;99.90;2.50;97439.00;;;;5035863;28;20455;-88
2023/01/01 04:04:53;;;;;;;8.97;6.10;;;1.90;99.90;3.20;97446.00;;;;5031991;28;20420;-87
2023/01/01 04:07:43;;;;;;;6.07;4.07;;;2.00;99.90;2.70;97441.00;;;;5036452;28;20849;-86
2023/01/01 04:10:33;;;;;;;3.87;3.23;;;2.30;99.90;2.00;97433.00;;;;5034634;28;20463;-86
2023/01/01 04:13:24;;;;;;;3.60;3.30;;;1.70;99.90;1.90;97440.00;;;;5028982;28;20437;-87
2023/01/01 04:16:12;;;;;;;15.07;5.17;;;1.50;99.90;1.90;97436.00;;;;5023016;28;20432;-88
2023/01/01 04:19:01;;;;;;;15.07;7.70;;;2.50;99.90;2.50;97438.00;;;;5036237;28;20436;-84
2023/01/01 04:21:50;;;;;;;15.57;6.13;;;1.40;99.90;2.50;97426.00;;;;5038291;28;20447;-85
2023/01/01 04:24:39;;;;;;;4.10;3.40;;;1.50;99.90;2.20;97425.00;;;;5035329;28;20949;-88
2023/01/01 04:27:28;;;;;;;12.30;8.33;;;1.50;99.90;3.00;97432.00;;;;5035698;28;20417;-85
2023/01/01 04:30:19;;;;;;;17.20;8.60;;;1.70;99.90;3.10;97437.00;;;;5039255;28;20475;-84
2023/01/01 04:33:07;;;;;;;14.07;8.30;;;1.90;99.90;2.60;97428.00;;;;5052618;28;20432;-83
2023/01/01 04:35:56;;;;;;;8.27;6.30;;;1.90;99.90;1.90;97419.00;;;;5046035;28;20412;-82
2023/01/01 04:38:45;;;;;;;3.40;2.40;;;1.80;99.90;1.90;97419.00;;;;5044126;28;20417;-88
2023/01/01 04:41:34;;;;;;;9.27;6.90;;;2.40;99.90;2.20;97422.00;;;;5030444;28;20519;-86
2023/01/01 04:44:23;;;;;;;14.73;11.07;;;1.60;99.90;2.70;97431.00;;;;5035897;28;20459;-87
2023/01/01 04:47:13;;;;;;;15.40;9.17;;;1.60;99.90;2.60;97434.00;;;;5037403;28;20454;-86
2023/01/01 04:50:01;;;;;;;11.20;7.60;;;1.70;99.90;2.80;97432.00;;;;5036750;28;20861;-87
2023/01/01 04:52:52;;;;;;;10.73;7.27;;;1.80;99.90;2.80;97441.00;;;;5038154;28;20460;-85
2023/01/01 04:55:41;;;;;;;9.97;6.97;;;1.80;99.90;2.70;97437.00;;;;5032395;28;20448;-86
2023/01/01 04:58:30;;;;;;;7.77;5.17;;;1.70;99.90;2.90;97441.00;;;;5027985;28;20850;-86
2023/01/01 05:01:21;;;;;;;4.47;4.03;;;2.80;99.90;2.50;97443.00;;;;5035187;28;20448;-84
2023/01/01 05:04:14;;;;;;;6.20;4.80;;;2.70;99.90;2.50;97454.00;;;;5036543;28;21003;-86
2023/01/01 05:07:03;;;;;;;4.93;4.47;;;1.80;99.90;2.40;97448.00;;;;5034451;28;20425;-86
2023/01/01 05:09:51;;;;;;;3.83;3.50;;;1.80;99.90;2.30;97453.00;;;;5024175;28;20448;-85
2023/01/01 05:12:40;;;;;;;3.13;2.50;;;1.80;99.90;2.40;97454.00;;;;5030784;28;20435;-87
2023/01/01 05:15:29;;;;;;;6.17;5.17;;;1.70;99.90;2.80;97453.00;;;;5036317;28;20428;-85
2023/01/01 05:18:17;;;;;;;11.10;5.53;;;1.70;99.90;2.90;97454.00;;;;5029637;28;20427;-87
2023/01/01 05:21:10;;;;;;;4.97;3.30;;;1.80;99.90;2.40;97458.00;;;;5034329;28;20459;-87
2023/01/01 05:24:01;;;;;;;7.93;5.33;;;1.80;99.90;3.10;97463.00;;;;5037725;28;21000;-88
2023/01/01 05:26:50;;;;;;;7.03;5.03;;;1.90;99.90;3.10;97466.00;;;;5031613;28;20455;-86
2023/01/01 05:29:38;;;;;;;7.93;5.00;;;2.30;99.90;3.30;97479.00;;;;5036541;28;20429;-87
2023/01/01 05:32:27;;;;;;;21.50;14.83;;;1.90;99.90;2.80;97476.00;;;;5025113;28;21162;-88
2023/01/01 05:35:16;;;;;;;6.80;3.97;;;1.90;99.90;2.40;97458.00;;;;5024677;28;20441;-86
2023/01/01 05:38:09;;;;;;;6.90;5.03;;;1.80;99.90;3.10;97454.00;;;;5036294;28;20436;-84
2023/01/01 05:40:58;;;;;;;8.80;6.40;;;1.90;99.90;3.20;97448.00;;;;5037379;28;20452;-85
2023/01/01 05:43:47;;;;;;;6.97;5.80;;;2.10;99.90;3.30;97451.00;;;;5031207;28;20549;-87
2023/01/01 05:46:36;;;;;;;5.57;4.40;;;2.00;99.90;3.00;97435.00;;;;5037506;28;20440;-84
2023/01/01 05:49:25;;;;;;;6.50;5.23;;;2.10;99.90;2.60;97440.00;;;;5032129;28;20441;-92
2023/01/01 05:52:14;;;;;;;5.57;4.20;;;3.40;99.90;2.10;97432.00;;;;5034360;28;20428;-85
2023/01/01 05:55:05;;;;;;;8.30;5.13;;;1.80;99.90;2.50;97432.00;;;;5035194;28;20432;-86
2023/01/01 05:57:53;;;;;;;6.33;4.20;;;1.80;99.90;2.60;97435.00;;;;5028822;28;20491;-87
2023/01/01 06:00:42;;;;;;;2.03;1.93;;;2.80;99.90;2.10;97434.00;;;;5034235;28;20550;-87
2023/01/01 06:03:31;;;;;;;5.07;3.53;;;1.70;99.90;2.50;97440.00;;;;5031350;28;20484;-88
2023/01/01 06:06:22;;;;;;;7.13;4.17;;;1.70;99.90;3.00;97430.00;;;;5032797;28;21116;-87
2023/01/01 06:09:11;;;;;;;6.20;4.63;;;3.70;99.90;3.10;97431.00;;;;5035350;28;20433;-85
2023/01/01 06:12:01;;;;;;;8.77;5.53;;;2.70;99.90;3.50;97451.00;;;;5036913;28;20527;-86
2023/01/01 06:14:50;;;;;;;6.03;4.30;;;2.10;99.90;3.20;97461.00;;;;5034440;28;20440;-85
2023/01/01 06:17:39;;;;;;;6.90;4.73;;;2.20;99.90;2.90;97459.00;;;;5033986;28;20433;-84
2023/01/01 06:20:27;;;;;;;4.60;3.73;;;2.10;99.90;2.50;97456.00;;;;5033542;28;21022;-87
2023/01/01 06:23:17;;;;;;;9.63;5.23;;;3.20;99.90;3.00;97469.00;;;;5035454;28;20440;-86
2023/01/01 06:26:08;;;;;;;4.63;3.87;;;2.40;99.90;3.20;97463.00;;;;5034465;28;20424;-86
2023/01/01 06:29:00;;;;;;;8.67;4.00;;;2.10;99.90;2.80;97456.00;;;;5032780;28;20440;-85
2023/01/01 06:31:48;;;;;;;6.60;4.67;;;2.10;99.90;2.70;97463.00;;;;5023750;28;20459;-86
2023/01/01 06:34:37;;;;;;;10.23;5.80;;;2.20;99.90;3.10;97462.00;;;;5034809;28;20448;-84
2023/01/01 06:37:28;;;;;;;7.90;5.93;;;2.20;99.90;3.60;97468.00;;;;5023267;28;20429;-86
2023/01/01 06:40:17;;;;;;;10.57;6.70;;;3.60;99.90;3.10;97460.00;;;;5036159;28;20865;-84
2023/01/01 06:43:05;;;;;;;7.97;5.83;;;1.30;99.90;2.80;97466.00;;;;5034655;28;20839;-88
2023/01/01 06:46:03;;;;;;;6.93;4.07;;;2.20;99.90;2.50;97448.00;;;;5035359;28;20432;-86
2023/01/01 06:48:55;;;;;;;10.20;5.87;;;2.00;99.90;2.90;97455.00;;;;5034079;28;20942;-85
2023/01/01 06:51:44;;;;;;;8.70;5.97;;;2.20;99.90;3.10;97454.00;;;;5033491;28;20452;-83
2023/01/01 06:54:33;;;;;;;9.93;6.20;;;2.00;99.90;3.10;97450.00;;;;5034755;28;20444;-87
2023/01/01 06:57:22;;;;;;;5.13;4.63;;;3.10;99.90;3.30;97455.00;;;;5034984;28;20545;-84
2023/01/01 07:00:12;;;;;;;9.53;5.13;;;2.20;99.90;3.10;97455.00;;;;5023693;28;20449;-85
2023/01/01 07:03:02;;;;;;;6.10;4.87;;;2.10;99.90;3.30;97475.00;;;;5033329;28;20433;-85
2023/01/01 07:05:51;;;;;;;6.23;4.53;;;2.20;99.90;3.30;97478.00;;;;5029089;28;21176;-85
2023/01/01 07:08:40;;;;;;;5.60;4.17;;;2.90;99.90;3.20;97470.00;;;;5027544;28;20429;-86
2023/01/01 07:11:29;;;;;;;6.13;4.47;;;2.30;99.90;3.20;97467.00;;;;5033334;28;20452;-85
2023/01/01 07:14:18;;;;;;;6.20;4.50;;;2.30;99.90;3.30;97486.00;;;;5024828;28;20436;-87
2023/01/01 07:17:07;;;;;;;7.00;4.73;;;2.30;99.90;3.00;97480.00;;;;5033837;28;20427;-86
2023/01/01 07:19:57;;;;;;;5.67;3.93;;;2.40;99.90;3.60;97484.00;;;;5032986;28;20435;-86
2023/01/01 07:22:45;;;;;;;7.83;5.83;;;2.40;99.90;3.90;97489.00;;;;5033508;28;20421;-87
2023/01/01 07:25:34;;;;;;;7.10;4.50;;;2.50;99.90;4.20;97485.00;;;;5030504;28;20495;-88
2023/01/01 07:28:24;;;;;;;7.50;5.10;;;2.60;99.90;4.20;97484.00;;;;5029671;28;20432;-87
2023/01/01 07:31:13;;;;;;;9.10;5.03;;;2.80;99.90;4.20;97487.00;;;;5033565;28;20539;-89
2023/01/01 07:34:02;;;;;;;7.93;4.93;;;2.90;99.90;4.30;97482.00;;;;5021563;28;20930;-87
2023/01/01 07:36:52;;;;;;;6.77;5.00;;;3.00;99.90;4.50;97495.00;;;;5033427;28;20930;-88
2023/01/01 07:39:40;;;;;;;6.60;4.57;;;3.10;99.90;4.60;97496.00;;;;5025895;28;20941;-87
2023/01/01 07:42:29;;;;;;;7.57;4.63;;;3.20;99.90;4.80;97509.00;;;;5030210;28;20464;-87
2023/01/01 07:45:18;;;;;;;6.53;4.37;;;3.30;99.90;4.90;97516.00;;;;5032297;28;20577;-87
2023/01/01 07:48:11;;;;;;;5.37;4.83;;;3.40;99.90;4.90;97509.00;;;;5035242;28;20435;-87
2023/01/01 07:51:00;;;;;;;66.67;39.93;;;4.50;99.90;4.90;97505.00;;;;5033717;28;20455;-87
2023/01/01 07:53:50;;;;;;;24.07;15.73;;;3.60;99.90;5.20;97525.00;;;;5025006;28;20201;-87
2023/01/01 07:56:39;;;;;;;8.93;6.33;;;3.70;99.90;5.20;97516.00;;;;5032388;28;20884;-87
2023/01/01 07:59:28;;;;;;;7.77;5.37;;;3.80;99.90;5.00;97524.00;;;;5033462;28;20225;-86
2023/01/01 08:02:16;;;;;;;11.53;5.70;;;3.80;99.90;5.70;97535.00;;;;5032501;28;20444;-87
2023/01/01 08:05:06;;;;;;;6.13;5.33;;;3.90;99.90;5.60;97539.00;;;;5031718;28;20217;-87
2023/01/01 08:07:55;;;;;;;5.73;4.57;;;4.10;99.90;5.30;97531.00;;;;5033261;28;20205;-84
2023/01/01 08:10:45;;;;;;;5.47;3.87;;;4.20;99.90;5.30;97539.00;;;;5027464;28;20770;-85
2023/01/01 08:13:34;;;;;;;6.20;4.00;;;4.20;99.90;5.30;97540.00;;;;5026298;28;20685;-84
2023/01/01 08:16:23;;;;;;;5.23;4.03;;;4.20;99.90;5.20;97543.00;;;;5033202;28;20271;-87
2023/01/01 08:19:11;;;;;;;2.73;2.40;;;4.10;99.90;5.40;97547.00;;;;5032686;28;20216;-86
2023/01/01 08:22:00;;;;;;;7.90;4.53;;;4.10;99.90;5.50;97547.00;;;;5033508;28;20705;-85
2023/01/01 08:24:49;;;;;;;5.10;3.27;;;5.30;99.90;5.80;97547.00;;;;5034230;28;20295;-87
2023/01/01 08:27:39;;;;;;;7.20;4.07;;;4.20;99.90;5.60;97541.00;;;;5033084;28;20205;-84
2023/01/01 08:30:28;;;;;;;5.47;3.50;;;6.10;99.90;5.00;97535.00;;;;5035612;28;20221;-86
2023/01/01 08:33:17;;;;;;;5.53;4.10;;;4.30;99.90;5.20;97545.00;;;;5034152;28;20259;-87
2023/01/01 08:36:06;;;;;;;1.80;1.67;;;4.30;99.90;4.50;97531.00;;;;5025929;28;20201;-87
2023/01/01 08:38:55;;;;;;;3.27;2.90;;;4.20;99.90;4.50;97545.00;;;;5032235;28;20209;-88
2023/01/01 08:41:44;;;;;;;4.87;3.30;;;4.00;99.90;4.80;97544.00;;;;5022870;28;20230;-88
2023/01/01 08:44:34;;;;;;;4.97;3.37;;;3.90;99.90;5.10;97555.00;;;;5018417;28;20201;-84
2023/01/01 08:47:25;;;;;;;5.17;4.23;;;4.30;99.90;5.70;97556.00;;;;5033115;28;20809;-84
2023/01/01 08:50:14;;;;;;;4.53;3.20;;;4.30;99.90;5.70;97556.00;;;;5033924;28;20271;-85
2023/01/01 08:53:04;;;;;;;5.83;3.30;;;4.40;99.90;5.80;97559.00;;;;5031185;28;20198;-85
2023/01/01 08:55:57;;;;;;;4.37;3.80;;;4.50;99.90;5.60;97559.00;;;;5018544;28;20267;-83
2023/01/01 08:58:46;;;;;;;4.57;3.47;;;4.60;99.90;5.30;97552.00;;;;5025953;28;20194;-86
2023/01/01 09:01:36;;;;;;;4.97;3.30;;;4.60;99.90;5.80;97554.00;;;;5016907;28;20221;-86
2023/01/01 09:04:25;;;;;;;5.17;3.20;;;4.60;99.90;6.20;97558.00;;;;5023045;28;20675;-86
2023/01/01 09:07:13;;;;;;;3.63;3.27;;;4.70;99.90;6.00;97559.00;;;;5027796;28;20201;-85
2023/01/01 09:10:02;;;;;;;4.27;3.63;;;4.80;99.90;5.60;97557.00;;;;5028107;28;20197;-84
2023/01/01 09:12:51;;;;;;;6.70;4.57;;;4.80;99.90;6.00;97566.00;;;;5030390;28;20208;-85
2023/01/01 09:15:41;;;;;;;4.43;3.17;;;4.80;99.90;5.60;97556.00;;;;5032477;28;20205;-85
2023/01/01 09:18:31;;;;;;;3.70;2.83;;;4.90;99.90;5.80;97554.00;;;;5031959;28;20280;-85
2023/01/01 09:21:20;;;;;;;2.63;2.43;;;5.30;99.90;6.00;97558.00;;;;5032534;28;20280;-87
2023/01/01 09:24:09;;;;;;;6.17;2.93;;;5.50;99.90;6.00;97550.00;;;;5031435;28;20204;-86
2023/01/01 09:27:01;;;;;;;3.67;3.03;;;5.10;99.90;6.50;97559.00;;;;5030924;28;20702;-90
2023/01/01 09:29:49;;;;;;;4.07;3.73;;;5.30;99.90;6.70;97565.00;;;;5030294;28;20263;-85
2023/01/01 09:32:38;;;;;;;5.73;4.03;;;5.60;99.90;7.20;97566.00;;;;5021592;28;20197;-86
2023/01/01 09:35:29;;;;;;;3.40;3.10;;;5.70;99.90;7.60;97567.00;;;;5029498;28;20216;-84
2023/01/01 09:38:18;;;;;;;5.93;4.40;;;6.60;99.90;8.10;97573.00;;;;5030617;28;20208;-85
2023/01/01 09:41:19;;;;;;;7.13;5.07;;;6.20;99.90;8.40;97570.00;;;;5020729;28;20247;-84
2023/01/01 09:44:26;;;;;;;6.33;4.43;;;6.50;99.90;9.30;97585.00;;;;5031016;28;20670;-86
2023/01/01 09:47:25;;;;;;;6.13;4.93;;;5.00;99.90;9.10;97572.00;;;;5031379;28;20225;-86
2023/01/01 09:50:18;;;;;;;6.27;5.23;;;7.10;99.90;8.70;97576.00;;;;5024353;28;20253;-86
2023/01/01 09:53:15;;;;;;;6.13;4.50;;;7.30;99.90;8.40;97578.00;;;;5028926;28;20201;-86
2023/01/01 09:56:06;;;;;;;6.37;4.73;;;7.30;99.90;8.70;97567.00;;;;5022146;28;20198;-88
2023/01/01 09:58:57;;;;;;;5.50;4.17;;;7.30;99.90;9.20;97583.00;;;;5030575;28;20208;-87
2023/01/01 10:01:52;;;;;;;7.90;4.83;;;7.40;99.90;8.70;97571.00;;;;5029612;28;20228;-86
2023/01/01 10:04:57;;;;;;;5.47;3.70;;;7.50;99.90;8.50;97570.00;;;;5029687;28;20707;-84
2023/01/01 10:07:49;;;;;;;10.17;6.53;;;7.40;99.90;8.90;97578.00;;;;5027455;28;20216;-86
2023/01/01 10:10:48;;;;;;;17.57;9.23;;;7.40;99.90;8.80;97573.00;;;;5027334;28;20221;-85
2023/01/01 10:13:42;;;;;;;15.23;8.57;;;7.50;99.90;8.60;97570.00;;;;5029188;28;20213;-86
2023/01/01 10:16:38;;;;;;;9.87;6.23;;;7.50;99.90;9.00;97581.00;;;;5028266;28;20331;-84
2023/01/01 10:19:33;;;;;;;4.23;3.83;;;7.60;99.90;9.10;97576.00;;;;5029749;28;20744;-87
2023/01/01 10:22:27;;;;;;;4.30;3.90;;;7.60;99.90;9.30;97575.00;;;;5024624;28;20283;-85
2023/01/01 10:25:20;;;;;;;5.80;4.60;;;7.80;99.90;10.00;97572.00;;;;5026618;28;20198;-87
2023/01/01 10:28:18;;;;;;;9.97;6.33;;;8.00;99.90;10.90;97578.00;;;;5025674;28;20224;-86
2023/01/01 10:31:16;;;;;;;10.90;6.93;;;8.90;99.90;11.50;97583.00;;;;5025614;28;20229;-85
2023/01/01 10:34:16;;;;;;;18.43;8.93;;;10.20;99.90;11.80;97569.00;;;;5028224;28;20284;-87
2023/01/01 10:37:05;;;;;;;6.77;5.40;;;11.20;99.90;12.10;97571.00;;;;5037345;28;20213;-84
2023/01/01 10:39:53;;;;;;;8.80;5.90;;;11.90;99.90;13.10;97578.00;;;;5042920;28;20236;-87
2023/01/01 10:42:42;;;;;;;8.37;6.50;;;12.70;99.90;13.00;97575.00;;;;5026397;28;20206;-86
2023/01/01 10:45:36;;;;;;;6.80;4.93;;;13.20;99.90;13.80;97576.00;;;;5035592;28;20205;-86
2023/01/01 10:48:26;;;;;;;13.57;8.47;;;13.80;99.90;13.60;97569.00;;;;5031762;28;20584;-87
2023/01/01 10:51:19;;;;;;;5.93;3.73;;;14.10;99.90;14.30;97570.00;;;;5027289;28;20225;-87
2023/01/01 10:54:29;;;;;;;9.87;4.53;;;14.50;99.90;14.50;97569.00;;;;5032766;28;20197;-85
2023/01/01 10:57:30;;;;;;;5.20;4.13;;;14.90;98.60;14.90;97564.00;;;;5030180;28;20923;-86
2023/01/01 11:00:25;;;;;;;5.27;4.23;;;15.30;97.00;16.00;97564.00;;;;5032249;28;20221;-86
2023/01/01 11:03:21;;;;;;;3.47;2.67;;;15.80;96.30;16.50;97550.00;;;;5032820;28;20212;-86
2023/01/01 11:06:21;;;;;;;4.00;3.60;;;16.40;94.30;16.20;97559.00;;;;5029379;28;20713;-87
2023/01/01 11:09:22;;;;;;;5.20;4.70;;;16.90;91.90;16.70;97563.00;;;;5025721;28;20242;-85
2023/01/01 11:12:21;;;;;;;5.67;3.47;;;17.20;91.10;16.90;97554.00;;;;5030129;28;20283;-86
2023/01/01 11:15:37;;;;;;;5.10;2.80;;;17.30;90.00;15.90;97547.00;;;;5029748;28;20193;-85
2023/01/01 11:18:34;;;;;;;3.77;3.43;;;17.10;86.70;16.80;97548.00;;;;5030330;28;20614;-87
2023/01/01 11:21:24;;;;;;;6.23;4.83;;;17.10;87.60;16.90;97545.00;;;;5027457;28;20691;-87
2023/01/01 11:24:21;;;;;;;3.20;2.90;;;17.10;86.80;16.20;97543.00;;;;5029458;28;20210;-86
2023/01/01 11:27:20;;;;;;;3.75;3.17;;;16.90;85.20;14.90;97525.00;;;;5030509;28;20431;-87
2023/01/01 11:30:26;;;;;;;5.10;3.53;;;16.80;84.20;16.60;97530.00;;;;5030775;28;20288;-86
2023/01/01 11:33:17;;;;;;;5.27;3.13;;;16.70;86.60;15.80;97525.00;;;;5030476;28;20205;-86
2023/01/01 11:36:09;;;;;;;3.30;3.00;;;16.70;85.50;16.80;97533.00;;;;5032379;28;20216;-86
2023/01/01 11:39:19;;;;;;;5.50;3.00;;;16.60;86.20;17.20;97529.00;;;;5035806;28;20205;-86
2023/01/01 11:42:08;;;;;;;4.80;3.47;;;17.10;84.10;18.30;97530.00;;;;5034853;28;20279;-86
2023/01/01 11:45:00;;;;;;;2.97;2.20;;;17.60;83.60;17.90;97524.00;;;;5034450;28;20668;-86
2023/01/01 11:47:55;;;;;;;4.10;3.13;;;18.00;81.00;17.80;97514.00;;;;5028938;28;20287;-86
2023/01/01 11:50:53;;;;;;;4.63;2.87;;;18.00;80.60;16.20;97530.00;;;;5034653;28;20221;-86
2023/01/01 11:53:43;;;;;;;3.73;2.83;;;17.70;79.00;16.80;97504.00;;;;5028204;28;20267;-86
2023/01/01 11:56:32;;;;;;;3.90;2.90;;;17.30;80.30;17.10;97502.00;;;;5033894;28;20581;-85
2023/01/01 11:59:27;;;;;;;2.97;2.47;;;17.00;81.80;17.30;97513.00;;;;5031143;28;20263;-85
2023/01/01 12:02:29;;;;;;;3.10;2.80;;;16.90;84.00;18.20;97514.00;;;;5032001;28;20205;-86
2023/01/01 12:05:24;;;;;;;4.63;2.97;;;17.20;81.70;18.50;97518.00;;;;5025981;28;20200;-86
2023/01/01 12:08:23;;;;;;;3.53;2.60;;;17.50;81.60;17.60;97515.00;;;;5030112;28;20717;-84
2023/01/01 12:11:22;;;;;;;3.10;2.30;;;17.50;81.60;18.00;97512.00;;;;5030031;28;20206;-84
2023/01/01 12:14:21;;;;;;;3.40;2.60;;;17.50;81.50;19.20;97494.00;;;;5027537;28;20205;-84
2023/01/01 12:17:19;;;;;;;5.63;3.20;;;17.70;81.20;19.30;97488.00;;;;5030904;28;20205;-83
2023/01/01 12:20:14;;;;;;;3.07;2.73;;;17.80;79.80;19.70;97501.00;;;;5029693;28;20209;-85
2023/01/01 12:23:03;;;;;;;3.27;2.90;;;18.10;79.70;20.00;97489.00;;;;5030583;28;20205;-85
2023/01/01 12:26:00;;;;;;;6.17;3.37;;;18.40;79.20;19.40;97520.00;;;;5029890;28;20693;-85
2023/01/01 12:29:40;;;;;;;2.77;2.30;;;18.50;77.20;18.70;97496.00;;;;5022663;28;20229;-86
2023/01/01 12:32:44;;;;;;;6.10;2.80;;;18.10;77.30;19.40;97499.00;;;;4949190;28;20208;-85
2023/01/01 12:35:53;;;;;;;3.47;3.07;;;18.00;78.30;19.40;97500.00;;;;5023236;28;20197;-85
2023/01/01 12:39:35;;;;;;;3.70;2.90;;;18.10;76.90;18.70;97492.00;;;;5029067;28;20205;-86
2023/01/01 12:42:37;;;;;;;4.77;2.60;;;18.30;76.30;18.60;97513.00;;;;5028894;28;20639;-85
2023/01/01 12:45:46;;;;;;;4.67;2.47;;;18.10;76.20;19.10;97490.00;;;;5018940;28;20308;-86
2023/01/01 12:48:48;;;;;;;5.07;3.57;;;18.30;76.80;20.20;97496.00;;;;5020160;28;20642;-86
2023/01/01 12:51:49;;;;;;;6.33;4.03;;;18.40;76.40;19.20;97486.00;;;;5028575;28;20221;-86
2023/01/01 12:55:23;;;;;;;5.07;3.40;;;18.60;75.70;19.10;97496.00;;;;5030937;28;20203;-86
2023/01/01 12:58:19;;;;;;;3.53;3.03;;;18.60;74.90;18.70;97495.00;;;;5020511;28;20212;-87
2023/01/01 13:01:21;;;;;;;3.17;2.60;;;18.40;75.30;17.80;97494.00;;;;5021346;28;20213;-88